Time;durP1;ratioP1;P1;durP2;ratioP2;P2;SDS_P1;SDS_P2;PMS_P1;PMS_P2;Temp;Humidity;BMP_temperature;BMP_pressure;BME280_temperature;BME280_humidity;BME280_pressure;Samples;Min_cycle;Max_cycle;Signal;HPM_P1;HPM_P2
2024/02/08 00:01:28;;;;;;;11.87;4.30;;;13.50;99.90;;;;;;10498957;28;20058;-57
2024/02/08 00:06:31;;;;;;;12.85;4.13;;;13.50;99.90;;;;;;10501596;28;20086;-56
2024/02/08 00:11:33;;;;;;;7.93;4.15;;;13.50;99.90;;;;;;10495361;28;20063;-56
2024/02/08 00:16:37;;;;;;;11.30;4.17;;;13.50;99.90;;;;;;10499296;28;20040;-58
2024/02/08 00:21:40;;;;;;;10.48;4.47;;;13.50;99.90;;;;;;10502900;28;20427;-55
2024/02/08 00:26:48;;;;;;;10.00;4.07;;;13.50;99.90;;;;;;10498138;28;20043;-55
2024/02/08 00:31:52;;;;;;;16.48;4.88;;;13.50;99.90;;;;;;10506492;28;20051;-57
2024/02/08 00:36:54;;;;;;;11.50;4.65;;;13.50;99.90;;;;;;10510320;28;20801;-58
2024/02/08 00:41:57;;;;;;;9.03;4.10;;;13.40;99.90;;;;;;10508672;28;20083;-58
2024/02/08 00:47:02;;;;;;;12.82;5.30;;;13.40;99.90;;;;;;10510387;28;20932;-57
2024/02/08 00:52:05;;;;;;;11.00;4.88;;;13.30;99.90;;;;;;10506935;28;20171;-55
2024/02/08 00:57:10;;;;;;;12.73;4.20;;;13.30;99.90;;;;;;10507667;28;20052;-57
2024/02/08 01:02:13;;;;;;;11.38;4.57;;;13.30;99.90;;;;;;10507555;28;20103;-57
2024/02/08 01:07:16;;;;;;;9.90;4.57;;;13.30;99.90;;;;;;10504777;28;20606;-56
2024/02/08 01:12:19;;;;;;;11.82;4.97;;;13.30;99.90;;;;;;10504997;28;20249;-54
2024/02/08 01:17:22;;;;;;;8.60;4.18;;;13.30;99.90;;;;;;10503962;28;20078;-57
2024/02/08 01:22:24;;;;;;;9.95;4.60;;;13.20;99.90;;;;;;10503950;28;20466;-57
2024/02/08 01:27:26;;;;;;;10.50;4.50;;;13.20;99.90;;;;;;10507042;28;20074;-59
2024/02/08 01:32:29;;;;;;;9.60;4.90;;;13.20;99.90;;;;;;10506922;28;20054;-57
2024/02/08 01:37:38;;;;;;;15.45;5.18;;;13.20;99.90;;;;;;10507016;28;20048;-56
2024/02/08 01:42:41;;;;;;;10.65;4.20;;;13.20;99.90;;;;;;10507818;28;20081;-54
2024/02/08 01:47:48;;;;;;;10.35;4.60;;;13.20;99.90;;;;;;10506271;28;20635;-57
2024/02/08 01:52:50;;;;;;;9.48;4.03;;;13.10;99.90;;;;;;10506279;28;20044;-59
2024/02/08 01:57:53;;;;;;;13.07;4.03;;;13.10;99.90;;;;;;10505999;28;20113;-55
2024/02/08 02:02:58;;;;;;;7.50;3.53;;;13.10;99.90;;;;;;10505601;28;20507;-58
2024/02/08 02:08:00;;;;;;;9.90;4.18;;;13.10;99.90;;;;;;10506653;28;20045;-55
2024/02/08 02:13:08;;;;;;;10.20;4.40;;;13.10;99.90;;;;;;10507319;28;20091;-58
2024/02/08 02:18:12;;;;;;;6.80;3.60;;;13.20;99.90;;;;;;10504680;28;20047;-58
2024/02/08 02:23:18;;;;;;;15.02;4.40;;;13.10;99.90;;;;;;10506881;28;20134;-55
2024/02/08 02:28:22;;;;;;;14.18;5.30;;;13.10;99.90;;;;;;10503800;28;20060;-57
2024/02/08 02:33:26;;;;;;;8.32;3.90;;;13.20;99.90;;;;;;10499598;28;20142;-56
2024/02/08 02:38:31;;;;;;;8.32;3.35;;;13.10;99.90;;;;;;10501331;28;20124;-56
2024/02/08 02:43:34;;;;;;;8.30;3.97;;;13.10;99.90;;;;;;10499138;28;20649;-56
2024/02/08 02:48:40;;;;;;;7.85;4.10;;;13.10;99.90;;;;;;10496356;28;20047;-55
2024/02/08 02:53:45;;;;;;;12.23;4.15;;;13.10;99.90;;;;;;10504925;28;20047;-57
2024/02/08 02:58:47;;;;;;;11.38;4.35;;;13.10;99.90;;;;;;10499914;28;20158;-55
2024/02/08 03:03:49;;;;;;;11.30;4.20;;;13.10;99.90;;;;;;10499014;28;20224;-57
2024/02/08 03:08:56;;;;;;;24.40;3.60;;;13.10;99.90;;;;;;10496886;28;20073;-58
2024/02/08 03:13:58;;;;;;;9.05;3.42;;;13.10;99.90;;;;;;10498354;28;20048;-56
2024/02/08 03:19:01;;;;;;;19.30;5.20;;;13.00;99.90;;;;;;10502728;28;20044;-56
2024/02/08 03:24:08;;;;;;;8.25;3.60;;;13.00;99.90;;;;;;10501127;28;20170;-56
2024/02/08 03:29:11;;;;;;;8.77;3.35;;;13.00;99.90;;;;;;10503005;28;20129;-57
2024/02/08 03:34:19;;;;;;;9.32;3.45;;;13.00;99.90;;;;;;10502031;28;20178;-57
2024/02/08 03:39:25;;;;;;;8.98;3.33;;;13.00;99.90;;;;;;10501737;28;20051;-57
2024/02/08 03:44:29;;;;;;;7.20;3.28;;;13.00;99.90;;;;;;10500602;28;20109;-58
2024/02/08 03:49:32;;;;;;;8.27;3.50;;;13.00;99.90;;;;;;10498423;28;20113;-57
2024/02/08 03:54:36;;;;;;;11.82;3.28;;;13.10;99.90;;;;;;10498260;28;20070;-56
2024/02/08 04:58:23;;;;;;;8.35;3.90;;;13.10;99.90;;;;;;10562479;28;20877;-56
2024/02/08 05:03:27;;;;;;;7.40;2.95;;;13.10;99.90;;;;;;10562315;27;20847;-57
2024/02/08 05:08:28;;;;;;;16.50;5.40;;;13.30;99.90;;;;;;10561956;28;20103;-56
2024/02/08 05:13:31;;;;;;;13.83;4.30;;;13.50;99.90;;;;;;10562401;27;20085;-57
2024/02/08 05:18:36;;;;;;;9.13;4.80;;;13.60;99.90;;;;;;10561242;28;20054;-56
2024/02/08 05:23:41;;;;;;;7.07;3.28;;;13.70;99.90;;;;;;10550937;27;20461;-56
2024/02/08 05:28:43;;;;;;;12.38;5.55;;;13.80;99.90;;;;;;10532975;28;20052;-56
2024/02/08 05:33:46;;;;;;;11.52;5.35;;;13.70;99.90;;;;;;10531467;28;20051;-58
2024/02/08 05:38:52;;;;;;;9.65;4.03;;;13.80;99.90;;;;;;10530229;28;20100;-56
2024/02/08 05:43:54;;;;;;;7.47;3.42;;;13.70;99.90;;;;;;10530144;28;20052;-57
2024/02/08 05:49:04;;;;;;;9.97;4.57;;;13.90;99.90;;;;;;10522846;28;20052;-57
2024/02/08 05:54:06;;;;;;;15.95;6.07;;;14.00;99.90;;;;;;10528179;28;20532;-55
2024/02/08 05:59:08;;;;;;;11.20;4.15;;;14.10;99.90;;;;;;10527639;28;20605;-56
2024/02/08 06:04:12;;;;;;;17.90;6.03;;;14.20;99.90;;;;;;10525975;28;20876;-57
2024/02/08 06:09:37;;;;;;;11.10;4.65;;;14.30;99.90;;;;;;10522943;28;21366;-59
2024/02/08 06:14:38;;;;;;;12.87;3.23;;;14.40;99.90;;;;;;10527014;28;20047;-57
2024/02/08 06:19:50;;;;;;;6.85;3.80;;;14.40;99.90;;;;;;10524854;28;20059;-57
2024/02/08 06:24:54;;;;;;;10.95;4.28;;;14.40;99.90;;;;;;10529493;28;20956;-61
2024/02/08 06:29:58;;;;;;;20.00;6.78;;;14.50;99.90;;;;;;10532579;28;20059;-56
2024/02/08 06:35:19;;;;;;;11.10;5.07;;;14.40;99.90;;;;;;10527044;28;20051;-55
2024/02/08 06:40:24;;;;;;;18.98;7.25;;;14.30;99.90;;;;;;10529368;28;20611;-56
2024/02/08 06:45:44;;;;;;;9.60;4.50;;;14.20;99.90;;;;;;10527374;28;20052;-58
2024/02/08 07:38:53;;;;;;;19.85;7.18;;;14.20;99.90;;;;;;10522291;28;20047;-58
2024/02/08 07:43:56;;;;;;;16.77;4.78;;;14.10;99.90;;;;;;10530503;28;20121;-54
2024/02/08 07:49:04;;;;;;;28.92;6.43;;;14.10;99.90;;;;;;10525602;28;20055;-55
2024/02/08 07:54:10;;;;;;;17.35;7.32;;;14.30;99.90;;;;;;10523654;28;20097;-58
2024/02/08 07:59:15;;;;;;;14.65;4.78;;;14.20;99.90;;;;;;10523091;28;20051;-56
2024/02/08 08:04:41;;;;;;;11.07;3.97;;;14.30;99.90;;;;;;10524521;28;20588;-56
2024/02/08 08:09:46;;;;;;;12.43;5.28;;;14.10;99.90;;;;;;10526858;28;20056;-55
2024/02/08 08:15:13;;;;;;;19.13;4.90;;;14.40;99.90;;;;;;10522676;28;20051;-55
2024/02/08 08:31:35;;;;;;;21.13;6.45;;;14.40;99.90;;;;;;10577041;27;20574;-55
2024/02/08 08:36:41;;;;;;;16.50;5.28;;;14.50;99.90;;;;;;10577507;27;20078;-57
2024/02/08 08:41:47;;;;;;;12.70;4.13;;;14.40;99.90;;;;;;10580910;27;20058;-56
2024/02/08 08:46:52;;;;;;;16.25;5.18;;;14.50;99.90;;;;;;10577431;27;20043;-56
2024/02/08 08:51:58;;;;;;;10.90;3.92;;;14.60;99.90;;;;;;10577900;27;20792;-59
2024/02/08 08:57:02;;;;;;;10.57;4.50;;;14.60;99.90;;;;;;10573910;27;20051;-57
2024/02/08 09:02:06;;;;;;;10.23;3.95;;;14.50;99.90;;;;;;10573872;27;20051;-58
2024/02/08 09:07:11;;;;;;;15.55;4.38;;;14.40;99.90;;;;;;10576769;27;20113;-57
2024/02/08 09:12:13;;;;;;;14.40;4.25;;;14.60;99.90;;;;;;10577984;27;20097;-57
2024/02/08 09:17:25;;;;;;;14.53;5.23;;;14.50;99.90;;;;;;10573274;27;20052;-56
2024/02/08 09:22:31;;;;;;;13.70;5.07;;;14.40;99.90;;;;;;10571238;27;20679;-56
2024/02/08 09:27:34;;;;;;;17.65;4.28;;;14.60;99.90;;;;;;10575609;27;20066;-59
2024/02/08 09:32:46;;;;;;;;;;;14.60;99.90;;;;;;10577526;27;20275;-57
2024/02/08 09:37:48;;;;;;;12.80;4.72;;;14.50;99.90;;;;;;10572685;27;19927;-57
2024/02/08 09:43:16;;;;;;;15.20;3.35;;;14.70;99.90;;;;;;10547257;27;20174;-58
2024/02/08 09:48:26;;;;;;;9.98;3.30;;;14.70;99.90;;;;;;10543874;27;20098;-56
2024/02/08 09:53:30;;;;;;;16.10;4.80;;;14.70;99.90;;;;;;10550075;27;20121;-56
2024/02/08 09:58:34;;;;;;;12.77;4.70;;;14.90;99.90;;;;;;10551394;27;20050;-59
2024/02/08 10:03:39;;;;;;;20.08;4.95;;;14.60;99.90;;;;;;10546319;27;20054;-58
2024/02/08 10:08:51;;;;;;;9.50;2.95;;;14.70;99.90;;;;;;10541582;27;20164;-57
2024/02/08 10:14:02;;;;;;;11.03;3.43;;;14.80;99.90;;;;;;10544792;27;20047;-56
2024/02/08 10:19:23;;;;;;;10.65;3.75;;;14.80;99.90;;;;;;10544079;27;20051;-56
2024/02/08 10:26:17;;;;;;;9.00;2.95;;;14.70;99.90;;;;;;10542427;27;20167;-57
2024/02/08 10:30:05;;;;;;;12.13;3.03;;;14.90;99.90;;;;;;10541345;27;20862;-55
2024/02/08 10:35:19;;;;;;;10.23;3.75;;;14.80;99.90;;;;;;10542794;27;20052;-59
2024/02/08 10:40:32;;;;;;;16.15;3.72;;;14.80;99.90;;;;;;10543790;27;20132;-57
2024/02/08 10:45:43;;;;;;;11.32;3.17;;;15.00;99.90;;;;;;10544081;27;20203;-57
2024/02/08 10:50:49;;;;;;;17.88;4.45;;;15.00;99.90;;;;;;10541081;27;20167;-57
2024/02/08 10:55:56;;;;;;;9.95;3.90;;;15.00;99.90;;;;;;10542893;27;20661;-56
2024/02/08 11:06:29;;;;;;;14.88;4.45;;;15.00;99.90;;;;;;10530709;27;20096;-55
2024/02/08 11:11:32;;;;;;;10.75;3.50;;;15.00;99.90;;;;;;10541399;27;20071;-57
2024/02/08 11:16:37;;;;;;;10.60;3.42;;;15.30;99.90;;;;;;10543045;27;20126;-59
2024/02/08 11:21:44;;;;;;;9.80;3.78;;;15.30;99.90;;;;;;10544600;27;20590;-57
2024/02/08 11:26:54;;;;;;;9.48;3.33;;;15.10;99.90;;;;;;10544333;27;20681;-58
2024/02/08 11:31:56;;;;;;;11.73;3.40;;;15.10;99.90;;;;;;10543394;27;20058;-55
2024/02/08 11:37:06;;;;;;;7.15;1.75;;;15.10;99.90;;;;;;10540742;27;20048;-55
2024/02/08 11:42:15;;;;;;;9.93;3.33;;;15.30;99.90;;;;;;10543490;27;20052;-57
2024/02/08 11:47:23;;;;;;;15.13;4.88;;;15.30;99.90;;;;;;10538377;27;20077;-54
2024/02/08 11:52:27;;;;;;;9.00;3.80;;;15.10;99.90;;;;;;10541990;27;20059;-58
2024/02/08 11:57:37;;;;;;;7.40;2.92;;;15.20;99.90;;;;;;10540303;27;20520;-55
2024/02/08 12:02:40;;;;;;;10.82;3.95;;;15.20;99.90;;;;;;10538197;27;20051;-56
2024/02/08 12:07:45;;;;;;;8.02;3.33;;;15.10;99.90;;;;;;10541895;27;20105;-55
2024/02/08 12:12:52;;;;;;;10.13;4.22;;;15.20;99.90;;;;;;10540010;27;20142;-56
2024/02/08 12:18:05;;;;;;;14.73;3.60;;;14.90;99.90;;;;;;10528822;27;20039;-54
2024/02/08 12:23:08;;;;;;;9.60;2.67;;;15.20;99.90;;;;;;10536639;27;20062;-55
2024/02/08 12:28:10;;;;;;;9.18;2.80;;;15.20;99.90;;;;;;10533903;28;20051;-59
2024/02/08 12:33:14;;;;;;;8.95;3.42;;;15.10;99.90;;;;;;10540195;28;20047;-54
2024/02/08 12:38:21;;;;;;;6.93;2.55;;;15.10;99.90;;;;;;10537578;28;20047;-58
2024/02/08 12:43:23;;;;;;;7.78;3.33;;;15.30;99.90;;;;;;10538910;27;20075;-57
2024/02/08 12:48:29;;;;;;;10.98;3.75;;;15.00;99.90;;;;;;10538070;28;20048;-57
2024/02/08 12:53:32;;;;;;;9.68;2.85;;;15.10;99.90;;;;;;10538602;28;20059;-58
2024/02/08 12:58:34;;;;;;;9.85;3.13;;;15.10;99.90;;;;;;10540805;27;20071;-57
2024/02/08 13:03:38;;;;;;;11.43;3.17;;;15.20;99.90;;;;;;10537738;28;20406;-59
2024/02/08 13:08:45;;;;;;;7.10;2.45;;;15.00;99.90;;;;;;10539228;28;20079;-58
2024/02/08 13:13:48;;;;;;;7.15;2.72;;;15.00;99.90;;;;;;10537457;27;20693;-55
2024/02/08 13:18:55;;;;;;;12.40;3.15;;;15.10;99.90;;;;;;10545853;27;20051;-58
2024/02/08 13:23:59;;;;;;;6.20;2.60;;;15.20;99.90;;;;;;10546031;27;20066;-56
2024/02/08 13:29:02;;;;;;;10.02;2.78;;;15.00;99.90;;;;;;10545379;27;20055;-54
2024/02/08 13:34:04;;;;;;;8.82;2.60;;;15.10;99.90;;;;;;10548270;27;20319;-57
2024/02/08 13:39:11;;;;;;;5.90;3.40;;;14.90;99.90;;;;;;10544683;27;20507;-58
2024/02/08 13:44:14;;;;;;;4.78;2.13;;;15.00;99.90;;;;;;10548641;27;20559;-57
2024/02/08 13:49:16;;;;;;;7.85;2.92;;;15.40;99.90;;;;;;10542254;27;20051;-58
2024/02/08 13:54:20;;;;;;;11.70;2.70;;;15.20;99.90;;;;;;10553127;27;20578;-55
2024/02/08 13:59:23;;;;;;;8.77;2.70;;;15.20;99.90;;;;;;10547404;27;20047;-52
2024/02/08 14:04:25;;;;;;;4.93;1.70;;;15.10;99.90;;;;;;10549540;27;20890;-55
2024/02/08 14:09:31;;;;;;;8.37;2.97;;;15.30;99.90;;;;;;10547931;27;20054;-57
2024/02/08 14:14:40;;;;;;;10.70;3.88;;;15.40;99.90;;;;;;10550024;27;20081;-55
2024/02/08 14:19:43;;;;;;;12.00;3.80;;;15.40;99.90;;;;;;10546751;27;20048;-56
2024/02/08 14:24:51;;;;;;;6.63;3.10;;;15.40;99.90;;;;;;10543954;27;20751;-56
2024/02/08 14:29:53;;;;;;;4.93;2.63;;;15.50;99.90;;;;;;10546143;27;20055;-54
2024/02/08 14:34:58;;;;;;;5.47;2.27;;;15.30;99.90;;;;;;10543727;27;20160;-55
2024/02/08 14:40:02;;;;;;;4.70;3.00;;;15.40;99.90;;;;;;10545680;27;20083;-56
2024/02/08 14:45:11;;;;;;;8.68;2.80;;;15.40;99.90;;;;;;10545271;27;20982;-55
2024/02/08 14:50:48;;;;;;;6.95;2.58;;;15.50;99.90;;;;;;10547399;27;20081;-57
2024/02/08 14:55:45;;;;;;;7.15;3.08;;;15.50;99.90;;;;;;10548514;27;20051;-57
2024/02/08 15:00:57;;;;;;;6.22;2.88;;;15.40;99.90;;;;;;10544175;27;20548;-54
2024/02/08 15:06:05;;;;;;;5.90;3.47;;;15.50;99.90;;;;;;10540602;27;20072;-57
2024/02/08 15:11:26;;;;;;;7.60;2.85;;;15.50;99.90;;;;;;10543677;27;20058;-56
2024/02/08 15:16:30;;;;;;;5.90;3.88;;;15.40;99.90;;;;;;10544132;27;20081;-56
2024/02/08 15:21:38;;;;;;;0.30;0.30;;;15.20;99.90;;;;;;10543549;27;20047;-55
2024/02/08 15:26:47;;;;;;;0.10;0.10;;;15.40;99.90;;;;;;10542642;27;20108;-57
2024/02/08 15:31:56;;;;;;;0.03;0.03;;;14.70;99.90;;;;;;10539690;27;20814;-58
2024/02/08 15:42:26;;;;;;;0.00;0.00;;;15.40;99.90;;;;;;10533440;27;20565;-57
2024/02/08 15:47:29;;;;;;;0.10;0.10;;;15.60;99.90;;;;;;10539913;27;20880;-58
2024/02/08 15:52:33;;;;;;;0.65;0.43;;;15.50;99.90;;;;;;10536786;27;20055;-57
2024/02/08 15:57:40;;;;;;;0.00;0.00;;;15.20;99.90;;;;;;10538901;27;20565;-56
2024/02/08 16:02:43;;;;;;;0.10;0.10;;;15.40;99.90;;;;;;10533086;27;20134;-58
2024/02/08 16:07:56;;;;;;;0.10;0.10;;;15.50;99.90;;;;;;10537899;27;20050;-57
2024/02/08 16:13:05;;;;;;;0.10;0.10;;;15.30;99.90;;;;;;10536384;27;20052;-58
2024/02/08 16:18:22;;;;;;;0.20;0.20;;;15.50;99.90;;;;;;10540908;27;20047;-58
2024/02/08 16:23:26;;;;;;;0.25;0.25;;;15.20;99.90;;;;;;10535430;28;20163;-59
2024/02/08 16:28:29;;;;;;;0.20;0.20;;;15.30;99.90;;;;;;10536057;28;20636;-59
2024/02/08 16:33:41;;;;;;;0.10;0.10;;;15.30;99.90;;;;;;10536906;28;20047;-56
2024/02/08 16:38:56;;;;;;;0.10;0.10;;;15.30;99.90;;;;;;10533459;28;20434;-62
2024/02/08 16:44:03;;;;;;;0.00;0.00;;;15.20;99.90;;;;;;10532866;28;20801;-58
2024/02/08 16:49:06;;;;;;;0.08;0.08;;;15.10;99.90;;;;;;10537356;27;20046;-59
2024/02/08 16:54:29;;;;;;;0.00;0.00;;;15.10;99.90;;;;;;10542878;27;20051;-58
2024/02/08 16:59:44;;;;;;;0.05;0.05;;;14.30;99.90;;;;;;10542303;27;20124;-58
2024/02/08 17:04:48;;;;;;;0.10;0.10;;;14.20;99.90;;;;;;10546762;27;20082;-56
2024/02/08 17:09:57;;;;;;;0.00;0.00;;;14.40;99.90;;;;;;10543151;27;20852;-56
2024/02/08 17:15:20;;;;;;;0.10;0.10;;;14.40;99.90;;;;;;10543568;27;20043;-59
2024/02/08 17:20:37;;;;;;;0.10;0.10;;;14.60;99.90;;;;;;10543076;27;20722;-59
2024/02/08 17:25:55;;;;;;;0.35;0.35;;;14.90;99.90;;;;;;10544189;27;20166;-57
2024/02/08 17:31:06;;;;;;;0.08;0.08;;;15.00;99.90;;;;;;10541555;27;20051;-57
2024/02/08 17:36:13;;;;;;;0.10;0.10;;;15.00;99.90;;;;;;10539581;27;20097;-57
2024/02/08 17:41:15;;;;;;;0.00;0.00;;;15.10;99.90;;;;;;10538921;27;20081;-55
2024/02/08 17:46:22;;;;;;;0.40;0.40;;;15.00;99.90;;;;;;10537832;27;20055;-59
2024/02/08 17:51:37;;;;;;;0.10;0.10;;;15.10;99.90;;;;;;10542489;27;20077;-55
2024/02/08 17:56:41;;;;;;;0.05;0.05;;;15.10;99.90;;;;;;10541492;27;20067;-55
2024/02/08 18:01:55;;;;;;;0.10;0.10;;;15.10;99.90;;;;;;10543015;27;20800;-56
2024/02/08 18:07:03;;;;;;;0.30;0.30;;;15.10;99.90;;;;;;10541631;27;20044;-56
2024/02/08 18:12:12;;;;;;;0.10;0.10;;;14.90;99.90;;;;;;10537667;27;20044;-57
2024/02/08 18:17:19;;;;;;;1.27;0.75;;;14.40;99.90;;;;;;10538985;27;20693;-57
2024/02/08 18:22:28;;;;;;;1.85;0.80;;;14.40;99.90;;;;;;10538740;27;20060;-57
2024/02/08 18:27:31;;;;;;;0.63;0.63;;;14.00;99.90;;;;;;10537134;27;20056;-55
2024/02/08 18:32:38;;;;;;;4.07;1.10;;;14.40;99.90;;;;;;10540627;27;20449;-59
2024/02/08 18:37:44;;;;;;;0.10;0.10;;;14.80;99.90;;;;;;10532827;27;20236;-59
2024/02/08 18:42:47;;;;;;;0.28;0.28;;;14.40;99.90;;;;;;10536268;27;20158;-56
2024/02/08 18:47:52;;;;;;;0.15;0.15;;;14.40;99.90;;;;;;10536025;27;20058;-59
2024/02/08 18:52:54;;;;;;;0.30;0.30;;;14.10;99.90;;;;;;10534529;27;20071;-57
2024/02/08 18:57:58;;;;;;;0.10;0.10;;;14.10;99.90;;;;;;10538475;27;20055;-64
2024/02/08 19:03:07;;;;;;;0.10;0.10;;;13.60;99.90;;;;;;10536882;27;20203;-61
2024/02/08 19:08:13;;;;;;;1.58;1.48;;;13.70;99.90;;;;;;10535751;27;20053;-59
2024/02/08 19:13:25;;;;;;;0.30;0.30;;;13.80;99.90;;;;;;10533129;27;20047;-58
2024/02/08 19:18:32;;;;;;;0.57;0.57;;;13.90;99.90;;;;;;10533242;27;20171;-58
2024/02/08 19:23:34;;;;;;;0.20;0.20;;;13.80;99.90;;;;;;10529663;27;20078;-60
2024/02/08 19:28:35;;;;;;;0.17;0.17;;;13.80;99.90;;;;;;10535086;27;20055;-60
2024/02/08 19:33:41;;;;;;;4.75;1.40;;;14.00;99.90;;;;;;10535964;27;20159;-59
2024/02/08 19:38:44;;;;;;;0.13;0.13;;;14.00;99.90;;;;;;10534336;27;20267;-62
2024/02/08 19:43:47;;;;;;;0.05;0.05;;;14.40;99.90;;;;;;10540763;27;20077;-60
2024/02/08 19:48:52;;;;;;;0.00;0.00;;;14.70;99.90;;;;;;10539902;27;20758;-59
2024/02/08 19:53:58;;;;;;;0.10;0.10;;;14.70;99.90;;;;;;10540692;27;20047;-61
2024/02/08 19:59:02;;;;;;;0.10;0.10;;;14.70;99.90;;;;;;10539778;27;20043;-61
2024/02/08 20:04:13;;;;;;;0.03;0.03;;;14.90;99.90;;;;;;10541019;27;20709;-62
2024/02/08 20:09:17;;;;;;;1.77;1.48;;;14.60;99.90;;;;;;10535914;27;20051;-60
2024/02/08 20:14:21;;;;;;;0.15;0.15;;;14.80;99.90;;;;;;10536559;27;20056;-60
2024/02/08 20:19:26;;;;;;;0.10;0.10;;;14.50;99.90;;;;;;10532733;27;20082;-61
2024/02/08 20:24:29;;;;;;;0.25;0.25;;;14.80;99.90;;;;;;10535236;28;20071;-60
2024/02/08 20:29:33;;;;;;;0.10;0.10;;;14.80;99.90;;;;;;10533941;28;20059;-61
2024/02/08 20:34:38;;;;;;;0.28;0.28;;;14.70;99.90;;;;;;10532423;28;20456;-60
2024/02/08 20:39:42;;;;;;;0.10;0.10;;;14.60;99.90;;;;;;10534066;28;20120;-61
2024/02/08 20:44:44;;;;;;;0.13;0.13;;;14.70;99.90;;;;;;10532086;28;20051;-60
2024/02/08 20:49:48;;;;;;;1.02;0.40;;;14.60;99.90;;;;;;10533234;28;20052;-59
2024/02/08 20:54:53;;;;;;;0.20;0.20;;;14.70;99.90;;;;;;10533592;28;20047;-62
2024/02/08 20:59:55;;;;;;;0.28;0.28;;;14.70;99.90;;;;;;10531497;28;20050;-61
2024/02/08 21:04:59;;;;;;;0.10;0.10;;;14.70;99.90;;;;;;10535756;28;20175;-62
2024/02/08 21:10:01;;;;;;;0.10;0.10;;;14.70;99.90;;;;;;10530212;28;20104;-60
2024/02/08 21:15:04;;;;;;;0.17;0.17;;;14.70;99.90;;;;;;10530337;28;20815;-60
2024/02/08 21:20:09;;;;;;;0.25;0.25;;;14.80;99.90;;;;;;10532902;28;20075;-60
2024/02/08 21:25:15;;;;;;;0.10;0.10;;;14.70;99.90;;;;;;10535120;28;20167;-60
2024/02/08 21:30:18;;;;;;;3.13;2.47;;;14.80;99.90;;;;;;10538477;28;20952;-61
2024/02/08 21:35:22;;;;;;;0.10;0.10;;;14.40;99.90;;;;;;10536613;27;20085;-60
2024/02/08 21:40:24;;;;;;;0.10;0.10;;;14.60;99.90;;;;;;10552676;27;20058;-60
2024/02/08 21:45:28;;;;;;;0.15;0.15;;;14.70;99.90;;;;;;10549068;27;20059;-61
2024/02/08 21:50:32;;;;;;;1.00;1.00;;;14.20;99.90;;;;;;10549386;27;20757;-61
2024/02/08 21:55:35;;;;;;;0.28;0.28;;;14.30;99.90;;;;;;10544902;27;20048;-61
2024/02/08 22:00:37;;;;;;;0.73;0.73;;;14.30;99.90;;;;;;10544120;27;20067;-60
2024/02/08 22:05:40;;;;;;;0.27;0.27;;;14.30;99.90;;;;;;10541544;27;20071;-60
2024/02/08 22:10:43;;;;;;;1.70;1.15;;;14.50;99.90;;;;;;10542672;27;20048;-60
2024/02/08 22:15:47;;;;;;;0.70;0.60;;;14.90;99.90;;;;;;10550712;27;20085;-61
2024/02/08 22:20:51;;;;;;;0.85;0.57;;;14.80;99.90;;;;;;10550697;27;20133;-61
2024/02/08 22:25:53;;;;;;;0.45;0.45;;;14.80;99.90;;;;;;10548707;27;20043;-61
2024/02/08 22:30:55;;;;;;;0.10;0.10;;;14.90;99.90;;;;;;10549665;27;20052;-61
2024/02/08 22:35:59;;;;;;;0.20;0.20;;;14.90;99.90;;;;;;10548293;27;20184;-61
2024/02/08 22:41:01;;;;;;;0.25;0.25;;;15.20;99.90;;;;;;10541977;27;20121;-61
2024/02/08 22:46:03;;;;;;;0.30;0.30;;;15.40;99.90;;;;;;10530259;27;20185;-61
2024/02/08 22:51:08;;;;;;;;;;;15.50;99.90;;;;;;10543533;27;20063;-59
2024/02/08 22:56:11;;;;;;;2.90;0.63;;;15.60;99.90;;;;;;10546456;27;19931;-60
2024/02/08 23:01:33;;;;;;;0.15;0.15;;;15.60;99.90;;;;;;10542833;27;20111;-60
2024/02/08 23:06:40;;;;;;;0.28;0.28;;;15.60;99.90;;;;;;10547141;27;20454;-61
2024/02/08 23:11:45;;;;;;;0.10;0.10;;;15.60;99.90;;;;;;10541555;27;20124;-62
2024/02/08 23:16:50;;;;;;;0.10;0.10;;;15.40;99.90;;;;;;10540073;27;20051;-60
2024/02/08 23:21:55;;;;;;;0.10;0.10;;;15.40;99.90;;;;;;10537749;27;20043;-61
2024/02/08 23:26:57;;;;;;;0.20;0.20;;;15.30;99.90;;;;;;10537763;27;20467;-60
2024/02/08 23:31:59;;;;;;;0.23;0.23;;;15.60;99.90;;;;;;10539414;27;20044;-60
2024/02/08 23:37:03;;;;;;;0.10;0.10;;;15.50;99.90;;;;;;10538179;27;20946;-60
2024/02/08 23:42:06;;;;;;;0.25;0.25;;;15.60;99.90;;;;;;10540831;27;20513;-59
2024/02/08 23:47:08;;;;;;;0.10;0.10;;;15.60;99.90;;;;;;10537955;27;20142;-60
2024/02/08 23:52:14;;;;;;;0.10;0.10;;;15.60;99.90;;;;;;10536155;27;20499;-60
2024/02/08 23:57:20;;;;;;;0.10;0.10;;;15.80;99.90;;;;;;10535018;27;20099;-61
